sensor_id;sensor_type;location;lat;lon;timestamp;pressure;altitude;pressure_sealevel;temperature;humidity
50852;BME280;43953;45.508;-122.806;2022-12-07T00:00:24;101367.41;;;8.64;63.17
50852;BME280;43953;45.508;-122.806;2022-12-07T00:01:11;101373.78;;;8.63;63.44
50852;BME280;43953;45.508;-122.806;2022-12-07T00:01:45;101374.66;;;8.64;63.50
50852;BME280;43953;45.508;-122.806;2022-12-07T00:02:17;101368.25;;;8.65;63.39
50852;BME280;43953;45.508;-122.806;2022-12-07T00:02:49;101375.28;;;8.66;63.38
50852;BME280;43953;45.508;-122.806;2022-12-07T00:03:21;101373.44;;;8.66;63.67
50852;BME280;43953;45.508;-122.806;2022-12-07T00:03:54;101367.22;;;8.66;63.52
50852;BME280;43953;45.508;-122.806;2022-12-07T00:04:32;101373.63;;;8.65;63.15
50852;BME280;43953;45.508;-122.806;2022-12-07T00:05:04;101365.72;;;8.63;63.06
50852;BME280;43953;45.508;-122.806;2022-12-07T00:05:36;101367.78;;;8.61;63.00
50852;BME280;43953;45.508;-122.806;2022-12-07T00:06:09;101369.81;;;8.59;62.99
50852;BME280;43953;45.508;-122.806;2022-12-07T00:06:44;101373.50;;;8.58;62.90
50852;BME280;43953;45.508;-122.806;2022-12-07T00:07:16;101372.84;;;8.56;63.07
50852;BME280;43953;45.508;-122.806;2022-12-07T00:07:47;101372.84;;;8.56;62.87
50852;BME280;43953;45.508;-122.806;2022-12-07T00:08:20;101373.88;;;8.55;63.13
50852;BME280;43953;45.508;-122.806;2022-12-07T00:08:52;101372.19;;;8.54;63.20
50852;BME280;43953;45.508;-122.806;2022-12-07T00:09:24;101371.19;;;8.55;63.21
50852;BME280;43953;45.508;-122.806;2022-12-07T00:09:55;101372.19;;;8.54;63.01
50852;BME280;43953;45.508;-122.806;2022-12-07T00:10:27;101376.91;;;8.52;62.86
50852;BME280;43953;45.508;-122.806;2022-12-07T00:11:35;101370.88;;;8.50;63.07
50852;BME280;43953;45.508;-122.806;2022-12-07T00:12:07;101373.56;;;8.50;63.19
50852;BME280;43953;45.508;-122.806;2022-12-07T00:12:39;101371.91;;;8.49;63.13
50852;BME280;43953;45.508;-122.806;2022-12-07T00:13:10;101372.38;;;8.53;63.07
50852;BME280;43953;45.508;-122.806;2022-12-07T00:13:43;101374.88;;;8.54;63.10
50852;BME280;43953;45.508;-122.806;2022-12-07T00:14:15;101373.88;;;8.55;62.88
50852;BME280;43953;45.508;-122.806;2022-12-07T00:14:47;101380.91;;;8.56;62.99
50852;BME280;43953;45.508;-122.806;2022-12-07T00:15:19;101376.38;;;8.57;63.03
50852;BME280;43953;45.508;-122.806;2022-12-07T00:15:51;101374.50;;;8.57;63.14
50852;BME280;43953;45.508;-122.806;2022-12-07T00:16:24;101383.41;;;8.58;63.08
50852;BME280;43953;45.508;-122.806;2022-12-07T00:16:56;101379.88;;;8.57;63.10
50852;BME280;43953;45.508;-122.806;2022-12-07T00:17:28;101383.59;;;8.56;63.18
50852;BME280;43953;45.508;-122.806;2022-12-07T00:18:00;101378.69;;;8.60;63.20
50852;BME280;43953;45.508;-122.806;2022-12-07T00:18:32;101379.50;;;8.60;63.12
50852;BME280;43953;45.508;-122.806;2022-12-07T00:19:04;101376.47;;;8.63;63.19
50852;BME280;43953;45.508;-122.806;2022-12-07T00:19:36;101377.13;;;8.65;63.16
50852;BME280;43953;45.508;-122.806;2022-12-07T00:20:08;101376.97;;;8.67;63.17
50852;BME280;43953;45.508;-122.806;2022-12-07T00:20:39;101374.91;;;8.69;63.31
50852;BME280;43953;45.508;-122.806;2022-12-07T00:21:17;101367.06;;;8.68;63.24
50852;BME280;43953;45.508;-122.806;2022-12-07T00:21:49;101377.06;;;8.74;63.37
50852;BME280;43953;45.508;-122.806;2022-12-07T00:22:21;101377.75;;;8.76;63.18
50852;BME280;43953;45.508;-122.806;2022-12-07T00:22:53;101375.06;;;8.76;62.90
50852;BME280;43953;45.508;-122.806;2022-12-07T00:23:24;101375.88;;;8.76;62.99
50852;BME280;43953;45.508;-122.806;2022-12-07T00:23:57;101375.88;;;8.76;62.82
50852;BME280;43953;45.508;-122.806;2022-12-07T00:24:29;101381.25;;;8.76;62.93
50852;BME280;43953;45.508;-122.806;2022-12-07T00:25:01;101379.56;;;8.75;63.14
50852;BME280;43953;45.508;-122.806;2022-12-07T00:25:32;101377.91;;;8.74;62.97
50852;BME280;43953;45.508;-122.806;2022-12-07T00:26:09;101374.56;;;8.72;63.01
50852;BME280;43953;45.508;-122.806;2022-12-07T00:26:42;101377.44;;;8.71;63.21
50852;BME280;43953;45.508;-122.806;2022-12-07T00:27:15;101385.50;;;8.71;63.26
50852;BME280;43953;45.508;-122.806;2022-12-07T00:27:46;101374.91;;;8.69;63.12
50852;BME280;43953;45.508;-122.806;2022-12-07T00:28:18;101382.97;;;8.69;63.30
50852;BME280;43953;45.508;-122.806;2022-12-07T00:28:53;101374.09;;;8.69;63.58
50852;BME280;43953;45.508;-122.806;2022-12-07T00:29:26;101379.66;;;8.67;63.50
50852;BME280;43953;45.508;-122.806;2022-12-07T00:29:57;101376.09;;;8.66;63.55
50852;BME280;43953;45.508;-122.806;2022-12-07T00:30:29;101390.56;;;8.65;63.69
50852;BME280;43953;45.508;-122.806;2022-12-07T00:31:09;101384.53;;;8.63;63.58
50852;BME280;43953;45.508;-122.806;2022-12-07T00:31:41;101382.03;;;8.62;63.58
50852;BME280;43953;45.508;-122.806;2022-12-07T00:32:13;101386.56;;;8.61;63.72
50852;BME280;43953;45.508;-122.806;2022-12-07T00:32:45;101386.75;;;8.60;63.83
50852;BME280;43953;45.508;-122.806;2022-12-07T00:33:16;101386.75;;;8.60;63.83
50852;BME280;43953;45.508;-122.806;2022-12-07T00:33:48;101385.91;;;8.59;63.77
50852;BME280;43953;45.508;-122.806;2022-12-07T00:34:21;101391.13;;;8.61;63.81
50852;BME280;43953;45.508;-122.806;2022-12-07T00:34:52;101390.09;;;8.62;63.96
50852;BME280;43953;45.508;-122.806;2022-12-07T00:35:24;101384.53;;;8.63;63.88
50852;BME280;43953;45.508;-122.806;2022-12-07T00:35:57;101392.41;;;8.65;63.87
50852;BME280;43953;45.508;-122.806;2022-12-07T00:36:29;101382.34;;;8.67;63.88
50852;BME280;43953;45.508;-122.806;2022-12-07T00:37:01;101377.81;;;8.68;63.67
50852;BME280;43953;45.508;-122.806;2022-12-07T00:37:33;101385.66;;;8.69;63.70
50852;BME280;43953;45.508;-122.806;2022-12-07T00:38:04;101382.81;;;8.71;63.69
50852;BME280;43953;45.508;-122.806;2022-12-07T00:38:37;101381.78;;;8.72;63.72
50852;BME280;43953;45.508;-122.806;2022-12-07T00:39:09;101387.97;;;8.72;63.53
50852;BME280;43953;45.508;-122.806;2022-12-07T00:39:41;101384.47;;;8.72;63.48
50852;BME280;43953;45.508;-122.806;2022-12-07T00:40:13;101382.63;;;8.72;63.67
50852;BME280;43953;45.508;-122.806;2022-12-07T00:40:54;101380.78;;;8.73;63.37
50852;BME280;43953;45.508;-122.806;2022-12-07T00:41:27;101384.47;;;8.72;63.17
50852;BME280;43953;45.508;-122.806;2022-12-07T00:41:59;101385.66;;;8.69;63.18
50852;BME280;43953;45.508;-122.806;2022-12-07T00:42:30;101391.22;;;8.68;63.24
50852;BME280;43953;45.508;-122.806;2022-12-07T00:43:02;101393.06;;;8.67;63.44
50852;BME280;43953;45.508;-122.806;2022-12-07T00:43:34;101392.22;;;8.66;63.41
50852;BME280;43953;45.508;-122.806;2022-12-07T00:44:05;101393.25;;;8.65;63.38
50852;BME280;43953;45.508;-122.806;2022-12-07T00:44:37;101390.56;;;8.65;63.63
50852;BME280;43953;45.508;-122.806;2022-12-07T00:45:09;101392.22;;;8.66;63.70
50852;BME280;43953;45.508;-122.806;2022-12-07T00:45:41;101401.28;;;8.65;63.57
50852;BME280;43953;45.508;-122.806;2022-12-07T00:46:13;101392.22;;;8.66;63.60
50852;BME280;43953;45.508;-122.806;2022-12-07T00:46:45;101397.59;;;8.66;63.64
50852;BME280;43953;45.508;-122.806;2022-12-07T00:47:17;101399.28;;;8.68;63.60
50852;BME280;43953;45.508;-122.806;2022-12-07T00:47:49;101397.59;;;8.66;63.46
50852;BME280;43953;45.508;-122.806;2022-12-07T00:48:21;101396.75;;;8.66;63.53
50852;BME280;43953;45.508;-122.806;2022-12-07T00:48:53;101387.22;;;8.63;63.50
50852;BME280;43953;45.508;-122.806;2022-12-07T00:49:25;101394.28;;;8.64;63.56
50852;BME280;43953;45.508;-122.806;2022-12-07T00:49:57;101397.94;;;8.63;63.65
50852;BME280;43953;45.508;-122.806;2022-12-07T00:50:29;101396.28;;;8.62;63.59
50852;BME280;43953;45.508;-122.806;2022-12-07T00:51:02;101400.00;;;8.61;63.60
50852;BME280;43953;45.508;-122.806;2022-12-07T00:51:33;101395.63;;;8.60;63.84
50852;BME280;43953;45.508;-122.806;2022-12-07T00:52:05;101396.66;;;8.59;63.75
50852;BME280;43953;45.508;-122.806;2022-12-07T00:52:37;101396.66;;;8.59;63.70
50852;BME280;43953;45.508;-122.806;2022-12-07T00:53:09;101398.31;;;8.60;63.71
50852;BME280;43953;45.508;-122.806;2022-12-07T00:53:41;101398.31;;;8.60;63.55
50852;BME280;43953;45.508;-122.806;2022-12-07T00:54:13;101395.63;;;8.60;63.71
50852;BME280;43953;45.508;-122.806;2022-12-07T00:54:44;101399.16;;;8.61;63.64
50852;BME280;43953;45.508;-122.806;2022-12-07T00:55:16;101401.66;;;8.62;63.71
50852;BME280;43953;45.508;-122.806;2022-12-07T00:55:48;101397.13;;;8.63;63.57
50852;BME280;43953;45.508;-122.806;2022-12-07T00:56:25;101395.63;;;8.60;63.31
50852;BME280;43953;45.508;-122.806;2022-12-07T00:56:58;101399.34;;;8.59;63.43
50852;BME280;43953;45.508;-122.806;2022-12-07T00:57:30;101399.34;;;8.59;63.55
50852;BME280;43953;45.508;-122.806;2022-12-07T00:58:02;101402.22;;;8.58;63.30
50852;BME280;43953;45.508;-122.806;2022-12-07T00:58:34;101405.72;;;8.58;63.33
50852;BME280;43953;45.508;-122.806;2022-12-07T00:59:06;101402.38;;;8.56;63.85
50852;BME280;43953;45.508;-122.806;2022-12-07T00:59:38;101407.75;;;8.56;63.60
50852;BME280;43953;45.508;-122.806;2022-12-07T01:00:10;101406.91;;;8.56;63.50
50852;BME280;43953;45.508;-122.806;2022-12-07T01:00:43;101400.88;;;8.54;63.62
50852;BME280;43953;45.508;-122.806;2022-12-07T01:01:15;101407.06;;;8.54;63.90
50852;BME280;43953;45.508;-122.806;2022-12-07T01:01:47;101406.09;;;8.55;63.81
50852;BME280;43953;45.508;-122.806;2022-12-07T01:02:18;101404.38;;;8.54;63.92
50852;BME280;43953;45.508;-122.806;2022-12-07T01:02:50;101399.03;;;8.54;64.11
50852;BME280;43953;45.508;-122.806;2022-12-07T01:03:22;101403.56;;;8.54;63.82
50852;BME280;43953;45.508;-122.806;2022-12-07T01:03:54;101402.72;;;8.53;63.95
50852;BME280;43953;45.508;-122.806;2022-12-07T01:04:26;101402.91;;;8.52;63.73
50852;BME280;43953;45.508;-122.806;2022-12-07T01:04:57;101400.41;;;8.50;63.58
50852;BME280;43953;45.508;-122.806;2022-12-07T01:05:29;101395.03;;;8.50;63.79
50852;BME280;43953;45.508;-122.806;2022-12-07T01:06:01;101406.81;;;8.49;63.53
50852;BME280;43953;45.508;-122.806;2022-12-07T01:06:34;101403.25;;;8.49;63.61
50852;BME280;43953;45.508;-122.806;2022-12-07T01:07:06;101402.78;;;8.45;63.82
50852;BME280;43953;45.508;-122.806;2022-12-07T01:07:37;101402.16;;;8.43;63.77
50852;BME280;43953;45.508;-122.806;2022-12-07T01:08:09;101399.63;;;8.41;63.79
50852;BME280;43953;45.508;-122.806;2022-12-07T01:08:41;101398.78;;;8.41;63.51
50852;BME280;43953;45.508;-122.806;2022-12-07T01:09:13;101398.78;;;8.41;63.77
50852;BME280;43953;45.508;-122.806;2022-12-07T01:09:44;101400.47;;;8.42;63.82
50852;BME280;43953;45.508;-122.806;2022-12-07T01:10:16;101403.34;;;8.40;63.85
50852;BME280;43953;45.508;-122.806;2022-12-07T01:10:49;101406.84;;;8.41;63.89
50852;BME280;43953;45.508;-122.806;2022-12-07T01:11:24;101403.34;;;8.40;63.88
50852;BME280;43953;45.508;-122.806;2022-12-07T01:11:56;101401.28;;;8.42;63.75
50852;BME280;43953;45.508;-122.806;2022-12-07T01:12:28;101395.91;;;8.42;63.70
50852;BME280;43953;45.508;-122.806;2022-12-07T01:13:00;101401.28;;;8.42;63.63
50852;BME280;43953;45.508;-122.806;2022-12-07T01:13:33;101402.16;;;8.43;63.85
50852;BME280;43953;45.508;-122.806;2022-12-07T01:14:05;101398.44;;;8.44;64.03
50852;BME280;43953;45.508;-122.806;2022-12-07T01:14:37;101398.44;;;8.44;63.52
50852;BME280;43953;45.508;-122.806;2022-12-07T01:15:09;101399.09;;;8.46;64.01
50852;BME280;43953;45.508;-122.806;2022-12-07T01:15:42;101396.41;;;8.46;63.82
50852;BME280;43953;45.508;-122.806;2022-12-07T01:16:16;101401.44;;;8.49;63.94
50852;BME280;43953;45.508;-122.806;2022-12-07T01:16:47;101405.09;;;8.48;63.95
50852;BME280;43953;45.508;-122.806;2022-12-07T01:17:19;101397.06;;;8.48;63.90
50852;BME280;43953;45.508;-122.806;2022-12-07T01:17:51;101404.13;;;8.49;63.94
50852;BME280;43953;45.508;-122.806;2022-12-07T01:18:23;101398.75;;;8.49;63.87
50852;BME280;43953;45.508;-122.806;2022-12-07T01:18:56;101406.81;;;8.49;63.87
50852;BME280;43953;45.508;-122.806;2022-12-07T01:19:28;101402.44;;;8.48;63.77
50852;BME280;43953;45.508;-122.806;2022-12-07T01:20:00;101398.91;;;8.48;63.92
50852;BME280;43953;45.508;-122.806;2022-12-07T01:20:32;101406.13;;;8.47;63.97
50852;BME280;43953;45.508;-122.806;2022-12-07T01:21:06;101408.81;;;8.47;64.19
50852;BME280;43953;45.508;-122.806;2022-12-07T01:21:39;101408.00;;;8.47;63.93
50852;BME280;43953;45.508;-122.806;2022-12-07T01:22:10;101414.19;;;8.47;64.15
50852;BME280;43953;45.508;-122.806;2022-12-07T01:22:43;101407.78;;;8.48;64.26
50852;BME280;43953;45.508;-122.806;2022-12-07T01:23:15;101403.25;;;8.49;64.08
50852;BME280;43953;45.508;-122.806;2022-12-07T01:23:47;101413.81;;;8.50;64.20
50852;BME280;43953;45.508;-122.806;2022-12-07T01:24:19;101414.84;;;8.49;63.99
50852;BME280;43953;45.508;-122.806;2022-12-07T01:24:51;101409.47;;;8.49;64.34
50852;BME280;43953;45.508;-122.806;2022-12-07T01:25:23;101414.00;;;8.49;64.07
50852;BME280;43953;45.508;-122.806;2022-12-07T01:25:56;101416.88;;;8.47;63.98
50852;BME280;43953;45.508;-122.806;2022-12-07T01:26:28;101410.47;;;8.48;64.05
50852;BME280;43953;45.508;-122.806;2022-12-07T01:26:59;101412.53;;;8.46;64.24
50852;BME280;43953;45.508;-122.806;2022-12-07T01:27:33;101405.66;;;8.43;64.16
50852;BME280;43953;45.508;-122.806;2022-12-07T01:28:04;101417.38;;;8.42;64.14
50852;BME280;43953;45.508;-122.806;2022-12-07T01:28:37;101409.84;;;8.46;64.00
50852;BME280;43953;45.508;-122.806;2022-12-07T01:29:08;101413.53;;;8.45;63.95
50852;BME280;43953;45.508;-122.806;2022-12-07T01:29:40;101414.34;;;8.46;64.12
50852;BME280;43953;45.508;-122.806;2022-12-07T01:30:13;101412.53;;;8.46;64.10
50852;BME280;43953;45.508;-122.806;2022-12-07T01:30:44;101410.00;;;8.45;63.81
50852;BME280;43953;45.508;-122.806;2022-12-07T01:31:19;101423.25;;;8.46;63.82
50852;BME280;43953;45.508;-122.806;2022-12-07T01:31:51;101422.75;;;8.42;63.97
50852;BME280;43953;45.508;-122.806;2022-12-07T01:32:23;101415.72;;;8.41;63.89
50852;BME280;43953;45.508;-122.806;2022-12-07T01:32:55;101421.94;;;8.42;64.02
50852;BME280;43953;45.508;-122.806;2022-12-07T01:33:32;101410.34;;;8.41;64.08
50852;BME280;43953;45.508;-122.806;2022-12-07T01:34:04;101414.91;;;8.41;63.82
50852;BME280;43953;45.508;-122.806;2022-12-07T01:34:36;101423.94;;;8.40;64.17
50852;BME280;43953;45.508;-122.806;2022-12-07T01:35:07;101413.19;;;8.40;64.28
50852;BME280;43953;45.508;-122.806;2022-12-07T01:35:39;101416.91;;;8.39;64.33
50852;BME280;43953;45.508;-122.806;2022-12-07T01:36:28;101415.22;;;8.38;64.38
50852;BME280;43953;45.508;-122.806;2022-12-07T01:37:00;101424.25;;;8.37;64.71
50852;BME280;43953;45.508;-122.806;2022-12-07T01:37:36;101422.59;;;8.36;64.33
50852;BME280;43953;45.508;-122.806;2022-12-07T01:38:08;101415.56;;;8.35;64.34
50852;BME280;43953;45.508;-122.806;2022-12-07T01:38:40;101420.94;;;8.35;64.29
50852;BME280;43953;45.508;-122.806;2022-12-07T01:39:11;101423.63;;;8.35;64.26
50852;BME280;43953;45.508;-122.806;2022-12-07T01:39:43;101419.44;;;8.32;64.30
50852;BME280;43953;45.508;-122.806;2022-12-07T01:40:15;101419.44;;;8.32;64.30
50852;BME280;43953;45.508;-122.806;2022-12-07T01:40:55;101414.44;;;8.29;64.23
50852;BME280;43953;45.508;-122.806;2022-12-07T01:41:29;101419.81;;;8.29;64.49
50852;BME280;43953;45.508;-122.806;2022-12-07T01:42:01;101418.78;;;8.30;64.55
50852;BME280;43953;45.508;-122.806;2022-12-07T01:42:34;101417.78;;;8.31;64.53
50852;BME280;43953;45.508;-122.806;2022-12-07T01:43:17;101420.63;;;8.30;64.51
50852;BME280;43953;45.508;-122.806;2022-12-07T01:44:29;101421.31;;;8.32;64.64
50852;BME280;43953;45.508;-122.806;2022-12-07T01:45:50;101421.78;;;8.35;64.55
50852;BME280;43953;45.508;-122.806;2022-12-07T01:46:21;101426.94;;;8.37;64.20
50852;BME280;43953;45.508;-122.806;2022-12-07T01:47:02;101428.47;;;8.39;64.46
50852;BME280;43953;45.508;-122.806;2022-12-07T01:47:34;101428.47;;;8.39;64.28
50852;BME280;43953;45.508;-122.806;2022-12-07T01:48:08;101421.59;;;8.37;64.37
50852;BME280;43953;45.508;-122.806;2022-12-07T01:48:42;101426.94;;;8.37;64.45
50852;BME280;43953;45.508;-122.806;2022-12-07T01:49:33;101427.97;;;8.36;64.50
50852;BME280;43953;45.508;-122.806;2022-12-07T01:50:06;101422.59;;;8.36;64.39
50852;BME280;43953;45.508;-122.806;2022-12-07T01:50:39;101427.97;;;8.36;64.44
50852;BME280;43953;45.508;-122.806;2022-12-07T01:51:13;101425.97;;;8.38;64.34
50852;BME280;43953;45.508;-122.806;2022-12-07T01:51:46;101419.59;;;8.39;64.28
50852;BME280;43953;45.508;-122.806;2022-12-07T01:52:31;101427.66;;;8.39;64.44
50852;BME280;43953;45.508;-122.806;2022-12-07T01:53:06;101419.59;;;8.39;64.50
50852;BME280;43953;45.508;-122.806;2022-12-07T01:53:45;101423.94;;;8.40;64.46
50852;BME280;43953;45.508;-122.806;2022-12-07T01:54:17;101418.56;;;8.40;64.39
50852;BME280;43953;45.508;-122.806;2022-12-07T01:54:54;101422.28;;;8.39;64.37
50852;BME280;43953;45.508;-122.806;2022-12-07T01:55:27;101423.28;;;8.38;64.36
50852;BME280;43953;45.508;-122.806;2022-12-07T01:55:59;101418.91;;;8.37;64.54
50852;BME280;43953;45.508;-122.806;2022-12-07T01:56:32;101419.91;;;8.36;64.58
50852;BME280;43953;45.508;-122.806;2022-12-07T01:57:05;101426.31;;;8.35;64.54
50852;BME280;43953;45.508;-122.806;2022-12-07T01:57:42;101425.47;;;8.34;64.45
50852;BME280;43953;45.508;-122.806;2022-12-07T01:58:16;101423.44;;;8.36;64.28
50852;BME280;43953;45.508;-122.806;2022-12-07T01:58:49;101425.97;;;8.38;64.46
50852;BME280;43953;45.508;-122.806;2022-12-07T01:59:23;101427.66;;;8.39;64.42
50852;BME280;43953;45.508;-122.806;2022-12-07T01:59:57;101426.81;;;8.38;64.39
50852;BME280;43953;45.508;-122.806;2022-12-07T02:00:30;101428.47;;;8.39;64.54
50852;BME280;43953;45.508;-122.806;2022-12-07T02:01:01;101424.97;;;8.39;64.53
50852;BME280;43953;45.508;-122.806;2022-12-07T02:01:33;101421.44;;;8.38;64.43
50852;BME280;43953;45.508;-122.806;2022-12-07T02:02:10;101418.75;;;8.38;64.47
50852;BME280;43953;45.508;-122.806;2022-12-07T02:02:48;101424.25;;;8.37;64.38
50852;BME280;43953;45.508;-122.806;2022-12-07T02:03:43;101418.41;;;8.33;64.61
50852;BME280;43953;45.508;-122.806;2022-12-07T02:04:15;101417.59;;;8.33;64.87
50852;BME280;43953;45.508;-122.806;2022-12-07T02:04:47;101410.56;;;8.32;64.61
50852;BME280;43953;45.508;-122.806;2022-12-07T02:05:20;101415.94;;;8.32;64.56
50852;BME280;43953;45.508;-122.806;2022-12-07T02:05:53;101415.94;;;8.32;64.60
50852;BME280;43953;45.508;-122.806;2022-12-07T02:06:26;101415.94;;;8.32;64.73
50852;BME280;43953;45.508;-122.806;2022-12-07T02:06:58;101415.09;;;8.31;64.61
50852;BME280;43953;45.508;-122.806;2022-12-07T02:07:31;101423.31;;;8.30;64.85
50852;BME280;43953;45.508;-122.806;2022-12-07T02:08:05;101410.91;;;8.29;64.80
50852;BME280;43953;45.508;-122.806;2022-12-07T02:08:37;101408.25;;;8.29;64.58
50852;BME280;43953;45.508;-122.806;2022-12-07T02:09:10;101416.28;;;8.29;64.57
50852;BME280;43953;45.508;-122.806;2022-12-07T02:09:43;101416.94;;;8.31;64.71
50852;BME280;43953;45.508;-122.806;2022-12-07T02:10:20;101416.75;;;8.32;64.71
50852;BME280;43953;45.508;-122.806;2022-12-07T02:10:52;101411.19;;;8.34;64.68
50852;BME280;43953;45.508;-122.806;2022-12-07T02:11:24;101408.53;;;8.34;64.52
50852;BME280;43953;45.508;-122.806;2022-12-07T02:11:56;101412.91;;;8.35;64.58
50852;BME280;43953;45.508;-122.806;2022-12-07T02:12:28;101406.84;;;8.33;64.47
50852;BME280;43953;45.508;-122.806;2022-12-07T02:13:10;101412.56;;;8.30;64.08
50852;BME280;43953;45.508;-122.806;2022-12-07T02:13:44;101408.41;;;8.27;64.54
50852;BME280;43953;45.508;-122.806;2022-12-07T02:14:17;101417.94;;;8.30;64.63
50852;BME280;43953;45.508;-122.806;2022-12-07T02:14:50;101405.56;;;8.29;64.70
50852;BME280;43953;45.508;-122.806;2022-12-07T02:15:47;101403.88;;;8.28;64.58
50852;BME280;43953;45.508;-122.806;2022-12-07T02:17:37;101405.41;;;8.22;64.76
50852;BME280;43953;45.508;-122.806;2022-12-07T02:18:13;101405.59;;;8.20;64.81
50852;BME280;43953;45.508;-122.806;2022-12-07T02:20:47;101407.31;;;8.13;64.84
50852;BME280;43953;45.508;-122.806;2022-12-07T02:30:21;101418.44;;;8.02;65.16
50852;BME280;43953;45.508;-122.806;2022-12-07T02:30:55;101428.16;;;8.03;65.40
50852;BME280;43953;45.508;-122.806;2022-12-07T02:31:30;101419.94;;;8.05;65.44
50852;BME280;43953;45.508;-122.806;2022-12-07T02:32:12;101420.56;;;8.07;65.15
50852;BME280;43953;45.508;-122.806;2022-12-07T02:32:59;101425.78;;;8.08;65.47
50852;BME280;43953;45.508;-122.806;2022-12-07T02:33:37;101418.72;;;8.07;65.39
50852;BME280;43953;45.508;-122.806;2022-12-07T02:34:32;101422.44;;;8.06;65.39
50852;BME280;43953;45.508;-122.806;2022-12-07T02:35:11;101420.09;;;8.03;65.51
50852;BME280;43953;45.508;-122.806;2022-12-07T02:36:10;101423.81;;;8.02;65.50
50852;BME280;43953;45.508;-122.806;2022-12-07T02:36:50;101425.66;;;8.02;65.73
50852;BME280;43953;45.508;-122.806;2022-12-07T02:39:06;101432.50;;;8.04;65.85
50852;BME280;43953;45.508;-122.806;2022-12-07T02:40:31;101426.78;;;8.07;65.51
50852;BME280;43953;45.508;-122.806;2022-12-07T02:40:52;101421.25;;;8.09;65.48
50852;BME280;43953;45.508;-122.806;2022-12-07T02:41:37;101425.78;;;8.08;65.84
50852;BME280;43953;45.508;-122.806;2022-12-07T02:42:17;101423.94;;;8.09;65.31
50852;BME280;43953;45.508;-122.806;2022-12-07T02:42:55;101424.75;;;8.09;65.39
50852;BME280;43953;45.508;-122.806;2022-12-07T02:43:43;101424.09;;;8.07;65.52
50852;BME280;43953;45.508;-122.806;2022-12-07T02:44:23;101418.72;;;8.07;65.50
50852;BME280;43953;45.508;-122.806;2022-12-07T02:44:57;101429.47;;;8.07;65.69
50852;BME280;43953;45.508;-122.806;2022-12-07T02:45:31;101426.41;;;8.10;65.50
50852;BME280;43953;45.508;-122.806;2022-12-07T02:46:08;101437.81;;;8.12;65.52
50852;BME280;43953;45.508;-122.806;2022-12-07T02:46:57;101425.25;;;8.13;65.50
50852;BME280;43953;45.508;-122.806;2022-12-07T02:47:32;101421.72;;;8.12;65.25
50852;BME280;43953;45.508;-122.806;2022-12-07T02:48:07;101424.41;;;8.12;65.29
50852;BME280;43953;45.508;-122.806;2022-12-07T02:48:41;101419.22;;;8.11;65.42
50852;BME280;43953;45.508;-122.806;2022-12-07T02:49:14;101423.75;;;8.10;65.44
50852;BME280;43953;45.508;-122.806;2022-12-07T02:49:46;101425.78;;;8.08;65.26
50852;BME280;43953;45.508;-122.806;2022-12-07T02:50:20;101426.13;;;8.05;65.37
50852;BME280;43953;45.508;-122.806;2022-12-07T02:50:53;101426.47;;;8.02;65.44
50852;BME280;43953;45.508;-122.806;2022-12-07T02:51:30;101422.97;;;8.02;65.45
50852;BME280;43953;45.508;-122.806;2022-12-07T02:52:02;101427.47;;;8.01;65.64
50852;BME280;43953;45.508;-122.806;2022-12-07T02:52:34;101424.78;;;8.01;65.66
50852;BME280;43953;45.508;-122.806;2022-12-07T02:53:27;101421.13;;;8.02;65.57
50852;BME280;43953;45.508;-122.806;2022-12-07T02:53:58;101422.78;;;8.03;65.21
50852;BME280;43953;45.508;-122.806;2022-12-07T02:54:29;101426.28;;;8.04;65.59
50852;BME280;43953;45.508;-122.806;2022-12-07T02:55:01;101424.44;;;8.04;65.41
50852;BME280;43953;45.508;-122.806;2022-12-07T02:55:40;101425.31;;;8.05;65.74
50852;BME280;43953;45.508;-122.806;2022-12-07T02:56:30;101431.50;;;8.05;65.63
50852;BME280;43953;45.508;-122.806;2022-12-07T02:58:21;101420.09;;;8.03;65.77
50852;BME280;43953;45.508;-122.806;2022-12-07T03:01:09;101423.47;;;7.97;65.99
50852;BME280;43953;45.508;-122.806;2022-12-07T03:02:49;101421.81;;;7.96;65.93
50852;BME280;43953;45.508;-122.806;2022-12-07T03:03:23;101420.13;;;7.95;66.05
50852;BME280;43953;45.508;-122.806;2022-12-07T03:04:08;101423.84;;;7.94;65.97
50852;BME280;43953;45.508;-122.806;2022-12-07T03:06:33;101421.66;;;7.89;65.77
50852;BME280;43953;45.508;-122.806;2022-12-07T03:07:37;101427.03;;;7.89;65.90
50852;BME280;43953;45.508;-122.806;2022-12-07T03:09:14;101425.34;;;7.88;65.74
50852;BME280;43953;45.508;-122.806;2022-12-07T03:11:04;101425.00;;;7.91;66.09
50852;BME280;43953;45.508;-122.806;2022-12-07T03:12:20;101433.53;;;7.95;65.99
50852;BME280;43953;45.508;-122.806;2022-12-07T03:13:33;101432.53;;;7.96;65.63
50852;BME280;43953;45.508;-122.806;2022-12-07T03:14:18;101431.19;;;7.92;65.96
50852;BME280;43953;45.508;-122.806;2022-12-07T03:15:03;101436.09;;;7.88;66.33
50852;BME280;43953;45.508;-122.806;2022-12-07T03:15:46;101432.56;;;7.88;65.94
50852;BME280;43953;45.508;-122.806;2022-12-07T03:16:25;101438.97;;;7.87;66.04
50852;BME280;43953;45.508;-122.806;2022-12-07T03:17:00;101432.72;;;7.86;65.71
50852;BME280;43953;45.508;-122.806;2022-12-07T03:17:35;101434.41;;;7.87;66.14
50852;BME280;43953;45.508;-122.806;2022-12-07T03:18:12;101442.28;;;7.89;66.34
50852;BME280;43953;45.508;-122.806;2022-12-07T03:19:00;101437.75;;;7.89;66.26
50852;BME280;43953;45.508;-122.806;2022-12-07T03:19:35;101435.94;;;7.90;65.99
50852;BME280;43953;45.508;-122.806;2022-12-07T03:20:09;101436.91;;;7.89;65.95
50852;BME280;43953;45.508;-122.806;2022-12-07T03:20:44;101438.59;;;7.90;66.29
50852;BME280;43953;45.508;-122.806;2022-12-07T03:21:22;101434.06;;;7.90;66.26